KAOH/AOH METAR and TAF weather

Enter ICAO airport designator
Station Type Date Time Source
KAOH METAR 2018/10/20 22:53 UTC NOAA

KAOH 202253Z AUTO 29016G28KT 10SM OVC090 06/M01 A2989 RMK AO2 PK WND 32035/2158 RAE01 SLP124 P0000 T00611011 TSNO


Station Type Date Time Source
KAOH Decoded METAR 2018/10/20 22:53 UTC NOAA

LIMA ALLEN COUNTY AIRPORT, OH, United States (KAOH) 40-42N 84-01W 296M
Oct 20, 2018 - 06:53 PM EDT / 2018.10.20 2253 UTC
Wind: from the WNW (290 degrees) at 18 MPH (16 KT) gusting to 32 MPH (28 KT):0
Visibility: 10 mile(s):0
Sky conditions: overcast
Precipitation last hour: A trace
Temperature: 43.0 F (6.1 C)
Dew Point: 30.0 F (-1.1 C)
Relative Humidity: 59%
Pressure (altimeter): 29.89 in. Hg (1012 hPa)
ob: KAOH 202253Z AUTO 29016G28KT 10SM OVC090 06/M01 A2989 RMK AO2 PK WND 32035/2158 RAE01 SLP124 P0000 T00611011 TSNO
cycle: 23

Station Type Date Time Source
KAOH TAF UTC NOAA

Error!


Example: see airport list